createdAt,value
2019-05-20T07:29:20.397Z,40.55
2019-05-20T07:30:40.452Z,35.35
2019-05-20T07:31:40.562Z,36.40
2019-05-20T07:32:50.629Z,35.45
2019-05-20T07:34:40.624Z,39.70
2019-05-20T07:36:40.689Z,38.55
2019-05-20T07:39:40.781Z,36.50
2019-05-20T07:40:40.738Z,34.05
2019-05-20T07:41:41.777Z,35.85
2019-05-20T07:42:50.782Z,35.65
2019-05-20T07:45:40.827Z,36.80
2019-05-20T07:46:40.894Z,35.05
2019-05-20T07:47:50.910Z,33.30
2019-05-20T07:50:40.965Z,33.80
2019-05-20T07:55:41.078Z,33.75
2019-05-20T07:59:41.125Z,32.10
2019-05-20T08:01:41.154Z,36.15
2019-05-20T08:06:51.401Z,29.85
2019-05-20T08:09:45.909Z,30.55
2019-05-20T08:10:41.463Z,28.70
2019-05-20T08:13:41.561Z,28.35
2019-05-20T08:14:41.610Z,28.70
2019-05-20T08:16:51.669Z,28.70
2019-05-20T08:20:51.726Z,25.05
2019-05-20T08:22:41.741Z,24.35
2019-05-20T08:23:41.840Z,24.45
2019-05-20T08:24:41.864Z,27.65
2019-05-20T08:25:51.907Z,25.30
2019-05-20T08:27:42.016Z,25.65
2019-05-20T08:28:42.018Z,23.80
2019-05-20T08:29:42.060Z,25.95
2019-05-20T08:33:42.259Z,23.70
2019-05-20T08:35:52.384Z,25.50
2019-05-20T08:37:45.592Z,24.75
2019-05-20T08:39:42.469Z,23.50
2019-05-20T08:42:42.539Z,22.50
2019-05-20T08:48:42.700Z,21.60
2019-05-20T08:50:52.775Z,23.45
2019-05-20T08:55:52.959Z,21.00
2019-05-20T08:58:43.025Z,20.60
2019-05-20T09:03:43.104Z,21.10
2019-05-20T09:04:43.107Z,21.50
2019-05-20T09:07:43.195Z,20.80
2019-05-20T09:08:43.297Z,20.50
2019-05-20T09:09:43.244Z,19.25
2019-05-20T09:13:43.332Z,19.40
2019-05-20T09:14:43.321Z,19.40
2019-05-20T09:17:23.357Z,19.80
2019-05-20T09:18:43.378Z,18.05
2019-05-20T09:20:53.501Z,16.90
2019-05-20T09:22:43.475Z,18.55
2019-05-20T09:23:43.455Z,17.40
2019-05-20T09:24:43.691Z,18.60
2019-05-20T09:28:43.675Z,17.60
2019-05-20T09:29:43.734Z,17.40
2019-05-20T09:30:53.752Z,18.10
2019-05-20T09:32:33.799Z,17.10
2019-05-20T09:33:33.860Z,18.80
2019-05-20T09:34:44.019Z,15.45
2019-05-20T09:35:53.884Z,16.20
2019-05-20T09:37:53.939Z,15.00
2019-05-20T09:39:43.984Z,13.90
2019-05-20T09:40:44.049Z,15.10
2019-05-20T09:41:33.978Z,16.40
2019-05-20T09:43:04.031Z,16.20
2019-05-20T09:44:24.026Z,15.65
2019-05-20T09:45:44.065Z,15.05
2019-05-20T09:46:34.103Z,15.05
2019-05-20T09:48:04.124Z,16.00
2019-05-20T09:49:34.285Z,13.80
2019-05-20T09:50:44.288Z,14.20
2019-05-20T09:51:34.302Z,13.30
2019-05-20T09:53:06.708Z,16.20
2019-05-20T09:54:24.362Z,16.40
2019-05-20T09:55:34.387Z,14.95
2019-05-20T09:56:34.398Z,15.80
2019-05-20T09:57:54.427Z,13.70
2019-05-20T09:59:43.008Z,14.55
2019-05-20T10:00:44.492Z,15.70
2019-05-20T10:01:44.459Z,15.45
2019-05-20T10:03:05.059Z,14.10
2019-05-20T10:04:24.522Z,13.60
2019-05-20T10:06:24.579Z,14.90
2019-05-20T10:07:54.602Z,14.80
2019-05-20T10:10:44.720Z,14.40
2019-05-20T10:11:44.750Z,13.65
2019-05-20T10:17:44.833Z,13.10
2019-05-20T10:18:44.869Z,12.40
2019-05-20T10:20:44.887Z,11.85
2019-05-20T10:21:44.901Z,12.80
2019-05-20T10:24:25.021Z,12.95
2019-05-20T10:25:25.060Z,11.70
2019-05-20T10:26:25.070Z,11.20
2019-05-20T10:27:57.626Z,12.30
2019-05-20T10:30:25.152Z,12.00
2019-05-20T10:31:25.274Z,11.15
2019-05-20T10:32:45.200Z,11.65
2019-05-20T10:33:45.237Z,12.55
2019-05-20T10:34:45.219Z,13.35
2019-05-20T10:39:25.331Z,15.60
2019-05-20T10:42:55.366Z,13.05
2019-05-20T10:44:25.465Z,11.60
2019-05-20T10:46:25.435Z,10.75
2019-05-20T10:47:55.481Z,10.90
2019-05-20T10:49:45.548Z,10.30
2019-05-20T10:50:45.554Z,11.25
2019-05-20T10:51:45.580Z,11.00
2019-05-20T10:54:25.637Z,10.45
2019-05-20T10:55:25.715Z,9.30
2019-05-20T10:57:55.704Z,11.15
2019-05-20T11:01:25.811Z,11.60
2019-05-20T11:02:55.844Z,11.65
2019-05-20T11:05:25.907Z,12.40
2019-05-20T11:06:25.938Z,10.00
2019-05-20T11:07:56.009Z,11.00
2019-05-20T11:09:26.040Z,9.70
2019-05-20T11:10:26.076Z,11.10
2019-05-20T11:11:26.106Z,9.70
2019-05-20T11:12:46.170Z,9.60
2019-05-20T11:14:26.177Z,9.60
2019-05-20T11:17:56.244Z,9.20
2019-05-20T11:19:26.266Z,10.20
2019-05-20T11:22:57.785Z,9.40
2019-05-20T11:24:26.464Z,9.00
2019-05-20T11:26:26.488Z,9.95
2019-05-20T11:27:46.505Z,9.25
2019-05-20T11:29:16.547Z,8.90
2019-05-20T11:32:56.615Z,8.20
2019-05-20T11:37:46.671Z,8.30
2019-05-20T11:39:33.068Z,7.40
2019-05-20T11:40:26.724Z,7.30
2019-05-20T11:41:51.911Z,7.70
2019-05-20T11:42:56.752Z,7.75
2019-05-20T11:44:26.798Z,7.50
2019-05-20T11:47:46.809Z,7.90
2019-05-20T11:50:26.856Z,7.90
2019-05-20T11:52:56.892Z,7.25
2019-05-20T11:55:26.943Z,8.60
2019-05-20T11:56:26.961Z,7.70
2019-05-20T11:58:12.792Z,7.60
2019-05-20T11:59:26.999Z,8.30
2019-05-20T12:01:37.151Z,7.85
2019-05-20T12:02:47.200Z,9.45
2019-05-20T12:05:37.186Z,6.30
2019-05-20T12:07:47.135Z,6.95
2019-05-20T12:10:27.211Z,7.30
2019-05-20T12:12:57.448Z,7.20
2019-05-20T12:16:27.492Z,6.10
2019-05-20T12:17:47.493Z,6.60
2019-05-20T12:19:27.544Z,7.30
2019-05-20T12:20:27.558Z,9.30
2019-05-20T12:22:47.599Z,6.65
2019-05-20T12:24:27.609Z,7.00
2019-05-20T12:26:27.649Z,7.60
2019-05-20T12:27:57.677Z,8.10
2019-05-20T12:29:27.730Z,7.70
2019-05-20T12:30:27.851Z,10.00
2019-05-20T12:31:27.768Z,8.90
2019-05-20T12:33:16.942Z,11.15
2019-05-20T12:35:27.845Z,11.55
2019-05-20T12:36:27.856Z,13.20
2019-05-20T12:37:47.909Z,13.55
2019-05-20T12:41:27.949Z,12.20
2019-05-20T12:42:57.987Z,12.35
2019-05-20T12:44:28.000Z,15.30
2019-05-20T12:45:28.076Z,14.20
2019-05-20T12:47:48.067Z,14.90
2019-05-20T12:50:28.128Z,13.95
2019-05-20T12:52:58.204Z,17.25
2019-05-20T12:54:28.250Z,18.50
2019-05-20T12:55:28.280Z,16.05
2019-05-20T12:57:58.321Z,14.50
2019-05-20T12:59:28.805Z,14.15
2019-05-20T13:00:28.390Z,15.60
2019-05-20T13:01:38.472Z,14.15
2019-05-20T13:02:58.508Z,17.65
2019-05-20T13:04:28.627Z,16.20
2019-05-20T13:07:48.649Z,15.25
2019-05-20T13:09:28.687Z,13.10
2019-05-20T13:10:31.533Z,13.50
2019-05-20T13:12:58.772Z,15.15
2019-05-20T13:14:28.745Z,13.70
2019-05-20T13:15:28.804Z,12.75
2019-05-20T13:17:58.961Z,14.65
2019-05-20T13:19:28.881Z,14.35
2019-05-20T13:22:48.977Z,12.05
2019-05-20T13:24:18.988Z,12.90
2019-05-20T13:25:29.038Z,12.50
2019-05-20T13:26:29.118Z,12.10
2019-05-20T13:27:59.089Z,12.00
2019-05-20T13:30:29.124Z,11.80
2019-05-20T13:31:29.178Z,12.15
2019-05-20T13:32:49.161Z,10.70
2019-05-20T13:34:29.177Z,12.55
2019-05-20T13:40:44.807Z,11.20
2019-05-20T13:42:49.428Z,9.90
2019-05-20T13:44:29.456Z,9.40
2019-05-20T13:47:49.527Z,11.50
2019-05-20T13:48:59.537Z,11.75
2019-05-20T13:52:49.637Z,12.50
2019-05-20T13:53:59.664Z,8.90
2019-05-20T13:54:59.652Z,10.30
2019-05-20T13:55:59.656Z,11.75
2019-05-20T13:57:59.689Z,8.35
2019-05-20T13:58:59.733Z,9.80
2019-05-20T14:00:19.718Z,8.90
2019-05-20T14:02:49.738Z,9.10
2019-05-20T14:05:29.819Z,9.70
2019-05-20T14:06:29.831Z,9.70
2019-05-20T14:09:29.852Z,7.45
2019-05-20T14:10:29.868Z,9.00
2019-05-20T14:17:49.991Z,8.30
2019-05-20T14:19:30.154Z,7.90
2019-05-20T14:20:30.044Z,7.15
2019-05-20T14:23:00.069Z,7.70
2019-05-20T14:24:30.133Z,7.60
2019-05-20T14:27:50.170Z,7.70
2019-05-20T14:30:30.291Z,8.10
2019-05-20T14:32:50.326Z,8.70
2019-05-20T14:34:30.348Z,7.90
2019-05-20T14:35:30.362Z,6.80
2019-05-20T14:36:39.027Z,6.90
2019-05-20T14:37:50.390Z,7.20
2019-05-20T14:39:30.416Z,7.20
2019-05-20T14:40:30.452Z,7.50
2019-05-20T14:41:30.538Z,8.10
2019-05-20T14:43:00.481Z,7.20
2019-05-20T14:45:30.528Z,7.80
2019-05-20T14:48:00.545Z,6.60
2019-05-20T14:49:20.582Z,6.20
2019-05-20T14:53:00.611Z,6.20
2019-05-20T14:54:30.739Z,7.30
2019-05-20T14:55:41.075Z,8.00
2019-05-20T15:01:30.727Z,7.50
2019-05-20T15:02:50.775Z,7.20
2019-05-20T15:07:50.829Z,6.70
2019-05-20T15:12:50.893Z,6.45
2019-05-20T15:21:31.081Z,6.20
2019-05-20T15:23:01.120Z,5.20
2019-05-20T15:28:01.284Z,4.75
2019-05-20T15:29:27.844Z,6.00
2019-05-20T15:33:01.370Z,6.10
2019-05-20T15:37:51.431Z,5.30
2019-05-20T15:41:51.527Z,5.80
2019-05-20T15:43:31.617Z,5.80
2019-05-20T15:44:31.693Z,5.00
2019-05-20T15:45:31.641Z,5.10
2019-05-20T15:46:31.703Z,5.20
2019-05-20T15:51:31.809Z,5.15
2019-05-20T15:55:31.828Z,5.90
2019-05-20T15:56:51.841Z,6.40
2019-05-20T15:58:31.910Z,5.20
2019-05-20T16:01:52.017Z,5.70
2019-05-20T16:03:22.011Z,6.00
2019-05-20T16:05:32.094Z,5.00
2019-05-20T16:07:02.136Z,5.00
2019-05-20T16:08:32.119Z,5.10
2019-05-20T16:12:02.237Z,5.50
2019-05-20T16:13:32.221Z,6.30
2019-05-20T16:14:32.228Z,5.50
2019-05-20T16:18:32.291Z,4.90
2019-05-20T16:20:32.318Z,4.40
2019-05-20T16:23:32.399Z,5.50
2019-05-20T16:24:32.395Z,4.90
2019-05-20T16:26:52.467Z,4.80
2019-05-20T16:29:32.482Z,4.80
2019-05-20T16:34:32.544Z,4.40
2019-05-20T16:38:32.626Z,4.80
2019-05-20T16:41:52.703Z,4.90
2019-05-20T16:43:32.722Z,4.50
2019-05-20T16:44:32.730Z,4.30
2019-05-20T16:46:52.781Z,4.05
2019-05-20T16:54:32.947Z,4.90
2019-05-20T16:55:32.955Z,4.90
2019-05-20T16:57:32.990Z,4.20
2019-05-20T17:00:33.019Z,5.10
2019-05-20T17:01:53.044Z,4.75
2019-05-20T17:04:33.094Z,3.70
2019-05-20T17:10:33.268Z,4.35
2019-05-20T17:12:33.275Z,4.40
2019-05-20T17:18:33.445Z,4.00
2019-05-20T17:21:53.644Z,3.90
2019-05-20T17:24:33.682Z,4.15
2019-05-20T17:26:53.705Z,5.10
2019-05-20T17:28:33.761Z,3.70
2019-05-20T17:29:33.762Z,4.40
2019-05-20T17:30:45.668Z,4.40
2019-05-20T17:31:43.777Z,4.20
2019-05-20T17:32:43.793Z,3.60
2019-05-20T17:33:43.801Z,4.00
2019-05-20T17:34:33.808Z,4.20
2019-05-20T17:35:43.837Z,4.10
2019-05-20T17:36:43.897Z,4.30
2019-05-20T17:37:43.868Z,3.75
2019-05-20T17:38:43.883Z,4.70
2019-05-20T17:39:43.899Z,4.40
2019-05-20T17:40:43.924Z,3.90
2019-05-20T17:41:43.922Z,4.70
2019-05-20T17:42:43.964Z,3.80
2019-05-20T17:43:33.975Z,3.90
2019-05-20T17:44:33.997Z,3.60
2019-05-20T17:45:44.025Z,3.75
2019-05-20T17:46:44.033Z,4.25
2019-05-20T17:47:44.073Z,3.90
2019-05-20T17:48:34.062Z,3.80
2019-05-20T17:49:44.104Z,4.00
2019-05-20T17:50:34.094Z,3.95
2019-05-20T17:51:54.119Z,4.30
2019-05-20T17:53:44.151Z,3.85
2019-05-20T17:54:44.336Z,3.55
2019-05-20T17:55:44.284Z,3.80
2019-05-20T17:56:54.295Z,3.85
2019-05-20T17:58:44.317Z,4.10
2019-05-20T17:59:34.352Z,3.85
2019-05-20T18:00:44.348Z,4.45
2019-05-20T18:02:04.358Z,3.45
2019-05-20T18:03:24.377Z,4.10
2019-05-20T18:04:24.382Z,5.30
2019-05-20T18:05:34.398Z,4.40
2019-05-20T18:06:54.464Z,3.20
2019-05-20T18:08:44.477Z,3.90
2019-05-20T18:09:34.520Z,3.90
2019-05-20T18:10:34.504Z,3.95
2019-05-20T18:12:04.520Z,3.60
2019-05-20T18:13:34.548Z,3.35
2019-05-20T18:14:34.549Z,3.90
2019-05-20T18:15:34.575Z,3.60
2019-05-20T18:16:54.625Z,3.40
2019-05-20T18:19:24.610Z,4.00
2019-05-20T18:20:24.624Z,3.70
2019-05-20T18:21:54.641Z,4.40
2019-05-20T18:26:54.695Z,4.35
2019-05-20T18:28:24.718Z,3.10
2019-05-20T18:29:24.740Z,3.30
2019-05-20T18:30:24.785Z,3.30
2019-05-20T18:31:54.840Z,4.45
2019-05-20T18:35:34.992Z,3.20
2019-05-20T18:36:54.979Z,3.30
2019-05-20T18:42:05.055Z,3.80
2019-05-20T18:45:35.137Z,3.20
2019-05-20T18:46:55.153Z,3.60
2019-05-20T18:48:35.156Z,3.80
2019-05-20T18:49:35.181Z,4.10
2019-05-20T18:51:55.327Z,3.60
2019-05-20T18:53:35.344Z,3.20
2019-05-20T18:54:35.389Z,3.80
2019-05-20T18:55:35.418Z,3.80
2019-05-20T18:58:35.447Z,3.40
2019-05-20T19:02:05.866Z,3.60
2019-05-20T19:03:35.574Z,3.60
2019-05-20T19:06:35.598Z,3.80
2019-05-20T19:09:35.662Z,4.15
2019-05-20T19:13:35.728Z,2.75
2019-05-20T19:15:25.771Z,4.45
2019-05-20T19:16:35.807Z,3.60
2019-05-20T19:21:56.040Z,4.10
2019-05-20T19:23:35.980Z,3.80
2019-05-20T19:24:35.997Z,5.10
2019-05-20T19:28:26.132Z,4.30
2019-05-20T19:29:36.215Z,5.65
2019-05-20T19:30:26.250Z,5.25
2019-05-20T19:39:36.456Z,5.80
2019-05-20T19:40:36.536Z,5.30
2019-05-20T19:44:26.560Z,5.70
2019-05-20T19:45:36.591Z,6.40
2019-05-20T19:46:36.622Z,6.70
2019-05-20T19:51:56.732Z,6.50
2019-05-20T19:54:36.777Z,7.70
2019-05-20T19:55:36.786Z,5.15
2019-05-20T19:57:36.878Z,9.10
2019-05-20T19:58:36.862Z,8.40
2019-05-20T19:59:36.874Z,7.80
2019-05-20T20:00:26.919Z,7.60
2019-05-20T20:01:36.967Z,7.25
2019-05-20T20:03:26.993Z,9.95
2019-05-20T20:04:26.977Z,8.40
2019-05-20T20:05:36.997Z,9.10
2019-05-20T20:08:37.036Z,8.95
2019-05-20T20:09:37.044Z,10.90
2019-05-20T20:10:27.051Z,10.25
2019-05-20T20:11:37.068Z,7.40
2019-05-20T20:13:27.131Z,9.70
2019-05-20T20:14:27.153Z,8.00
2019-05-20T20:15:27.189Z,9.30
2019-05-20T20:16:37.179Z,8.95
2019-05-20T20:17:37.223Z,9.70
2019-05-20T20:19:37.247Z,8.40
2019-05-20T20:23:37.357Z,7.00
2019-05-20T20:24:37.335Z,9.60
2019-05-20T20:26:37.364Z,8.30
2019-05-20T20:27:37.383Z,8.75
2019-05-20T20:29:37.395Z,9.30
2019-05-20T20:30:37.409Z,9.30
2019-05-20T20:32:38.513Z,8.10
2019-05-20T20:35:38.447Z,9.95
2019-05-20T20:36:37.599Z,8.15
2019-05-20T20:37:37.604Z,10.50
2019-05-20T20:38:37.617Z,7.95
2019-05-20T20:39:27.688Z,6.70
2019-05-20T20:40:37.706Z,10.30
2019-05-20T20:48:27.812Z,9.40
2019-05-20T20:50:37.851Z,10.20
2019-05-20T20:51:37.880Z,10.10
2019-05-20T20:52:37.907Z,9.20
2019-05-20T20:53:37.909Z,8.85
2019-05-20T20:54:27.930Z,8.85
2019-05-20T20:55:37.963Z,8.70
2019-05-20T20:59:28.165Z,8.20
2019-05-20T21:01:38.212Z,7.55
2019-05-20T21:02:28.232Z,8.05
2019-05-20T21:03:28.239Z,7.35
2019-05-20T21:04:28.301Z,10.50
2019-05-20T21:05:28.288Z,8.85
2019-05-20T21:06:38.292Z,9.60
2019-05-20T21:07:38.303Z,6.50
2019-05-20T21:08:28.311Z,8.60
2019-05-20T21:09:28.361Z,7.90
2019-05-20T21:10:28.379Z,8.80
2019-05-20T21:11:38.402Z,9.70
2019-05-20T21:12:38.447Z,7.40
2019-05-20T21:13:28.461Z,8.90
2019-05-20T21:14:38.519Z,7.35
2019-05-20T21:15:38.504Z,7.80
2019-05-20T21:18:28.566Z,8.85
2019-05-20T21:19:28.620Z,8.30
2019-05-20T21:20:58.660Z,9.90
2019-05-20T21:23:28.687Z,9.60
2019-05-20T21:24:58.736Z,9.20
2019-05-20T21:25:58.719Z,9.80
2019-05-20T21:26:58.744Z,10.80
2019-05-20T21:27:48.762Z,10.20
2019-05-20T21:28:58.753Z,11.00
2019-05-20T21:29:58.799Z,10.70
2019-05-20T21:31:28.863Z,10.20
2019-05-20T21:32:28.840Z,12.20
2019-05-20T21:33:08.578Z,12.00
2019-05-20T21:33:48.899Z,10.10
2019-05-20T21:34:58.943Z,10.95
2019-05-20T21:36:49.052Z,12.10
2019-05-20T21:37:59.054Z,11.40
2019-05-20T21:39:59.135Z,10.85
2019-05-20T21:43:29.200Z,10.70
2019-05-20T21:44:29.210Z,10.10
2019-05-20T21:44:59.216Z,10.95
2019-05-20T21:46:59.253Z,9.20
2019-05-20T21:47:59.329Z,10.65
2019-05-20T21:49:49.313Z,9.15
2019-05-20T21:52:59.367Z,8.80
2019-05-20T21:53:59.369Z,8.60
2019-05-20T21:54:59.373Z,9.55
2019-05-20T21:55:59.394Z,9.00
2019-05-20T21:56:59.444Z,9.50
2019-05-20T21:57:59.452Z,8.40
2019-05-20T21:59:59.562Z,8.10
2019-05-20T22:00:59.566Z,10.50
2019-05-20T22:01:59.634Z,8.60
2019-05-20T22:03:59.682Z,8.70
2019-05-20T22:04:49.684Z,7.80
2019-05-20T22:05:59.742Z,7.80
2019-05-20T22:06:59.752Z,9.55
2019-05-20T22:08:59.764Z,7.50
2019-05-20T22:09:59.813Z,7.35
2019-05-20T22:10:59.811Z,8.25
2019-05-20T22:11:49.808Z,8.25
2019-05-20T22:12:59.861Z,7.90
2019-05-20T22:14:49.866Z,6.90
2019-05-20T22:15:59.873Z,6.60
2019-05-20T22:16:59.879Z,8.00
2019-05-20T22:17:59.903Z,6.60
2019-05-20T22:18:49.951Z,7.30
2019-05-20T22:21:40.021Z,7.00
2019-05-20T22:22:30.050Z,7.20
2019-05-20T22:23:40.040Z,6.40
2019-05-20T22:24:30.052Z,5.80
2019-05-20T22:25:10.064Z,6.40
2019-05-20T22:26:00.068Z,7.15
2019-05-20T22:27:00.077Z,6.10
2019-05-20T22:28:30.148Z,7.40
2019-05-20T22:30:30.218Z,7.40
2019-05-20T22:31:40.249Z,7.65
2019-05-20T22:32:00.237Z,7.80
2019-05-20T22:33:00.244Z,6.95
2019-05-20T22:35:40.288Z,7.00
2019-05-20T22:37:30.384Z,6.70
2019-05-20T22:38:10.433Z,5.40
2019-05-20T22:39:00.493Z,4.90
2019-05-20T22:39:50.510Z,6.00
2019-05-20T22:42:40.608Z,6.50
2019-05-20T22:43:30.620Z,5.90
2019-05-20T22:47:00.671Z,6.20
2019-05-20T22:48:00.730Z,5.90
2019-05-20T22:50:00.726Z,5.90
2019-05-20T22:51:00.776Z,5.70
2019-05-20T22:51:50.833Z,5.80
2019-05-20T22:54:00.921Z,5.45
2019-05-20T22:57:01.139Z,5.60
2019-05-20T22:58:01.117Z,6.20
2019-05-20T23:01:01.319Z,5.70
2019-05-20T23:02:01.319Z,5.60
2019-05-20T23:03:01.324Z,5.20
2019-05-20T23:03:56.260Z,5.90
2019-05-20T23:05:01.393Z,6.50
2019-05-20T23:06:31.428Z,6.40
2019-05-20T23:07:01.422Z,5.70
2019-05-20T23:09:01.444Z,4.95
2019-05-20T23:10:01.454Z,6.00
2019-05-20T23:11:31.556Z,6.30
2019-05-20T23:14:01.594Z,4.80
2019-05-20T23:15:01.599Z,4.40
2019-05-20T23:16:11.684Z,6.10
2019-05-20T23:21:01.722Z,5.40
2019-05-20T23:24:01.736Z,4.20
2019-05-20T23:26:01.818Z,4.40
2019-05-20T23:27:01.853Z,4.70
2019-05-20T23:28:11.864Z,4.80
2019-05-20T23:29:01.878Z,5.50
2019-05-20T23:30:01.892Z,4.35
2019-05-20T23:31:01.916Z,5.85
2019-05-20T23:32:11.935Z,4.65
2019-05-20T23:33:01.935Z,5.00
2019-05-20T23:34:12.046Z,5.65
2019-05-20T23:37:01.995Z,5.60
2019-05-20T23:38:02.025Z,4.85
2019-05-20T23:39:02.056Z,6.10
2019-05-20T23:41:02.098Z,4.60
2019-05-20T23:44:32.167Z,4.30
2019-05-20T23:45:02.204Z,4.70
2019-05-20T23:46:32.262Z,5.50
2019-05-20T23:50:32.470Z,4.60
2019-05-20T23:51:12.470Z,4.55
2019-05-20T23:52:02.486Z,4.30
2019-05-20T23:53:02.491Z,4.30
2019-05-20T23:54:32.519Z,4.45
2019-05-20T23:55:12.534Z,4.25
2019-05-20T23:59:02.669Z,4.40
